createdAt,value
2022-08-16T00:01:34.265Z,100206.28
2022-08-16T00:04:10.701Z,100211.91
2022-08-16T00:06:45.135Z,100205.88
2022-08-16T00:09:18.634Z,100208.84
2022-08-16T00:11:52.556Z,100214.34
2022-08-16T00:17:24.800Z,100199.69
2022-08-16T00:19:55.063Z,100204.41
2022-08-16T00:22:29.186Z,100206.88
2022-08-16T00:25:02.052Z,100197.16
2022-08-16T00:27:33.379Z,100206.06
2022-08-16T00:30:19.856Z,100204.31
2022-08-16T00:33:02.619Z,100204.19
2022-08-16T00:35:35.442Z,100205.44
2022-08-16T00:38:41.263Z,100214.53
2022-08-16T00:41:05.974Z,100210.09
2022-08-16T00:43:42.520Z,100214.56
2022-08-16T00:46:32.975Z,100218.13
2022-08-16T00:49:17.483Z,100224.03
2022-08-16T00:51:54.936Z,100210.59
2022-08-16T00:54:24.850Z,100214.31
2022-08-16T00:57:05.923Z,100211.66
2022-08-16T00:59:37.177Z,100217.59
2022-08-16T01:02:36.285Z,100229.13
2022-08-16T01:05:10.532Z,100235.03
2022-08-16T01:07:51.102Z,100239.94
2022-08-16T01:10:32.249Z,100240.06
2022-08-16T01:18:58.111Z,100237.28
2022-08-16T01:21:33.662Z,100236.56
2022-08-16T01:24:52.091Z,100235.81
2022-08-16T01:27:15.658Z,100234.59
2022-08-16T01:29:58.053Z,100238.38
2022-08-16T01:32:36.095Z,100230.28
2022-08-16T01:35:17.637Z,100232.97
2022-08-16T01:38:04.900Z,100241.34
2022-08-16T01:40:36.491Z,100242.50
2022-08-16T01:43:13.755Z,100250.50
2022-08-16T01:45:43.560Z,100254.25
2022-08-16T01:48:20.660Z,100248.72
2022-08-16T01:51:16.375Z,100257.78
2022-08-16T01:53:55.238Z,100257.69
2022-08-16T01:56:35.946Z,100270.78
2022-08-16T01:59:08.050Z,100273.31
2022-08-16T02:01:56.281Z,100267.19
2022-08-16T02:04:49.090Z,100275.75
2022-08-16T02:07:39.034Z,100270.09
2022-08-16T02:10:22.316Z,100277.66
2022-08-16T02:13:00.649Z,100289.31
2022-08-16T02:18:34.452Z,100288.47
2022-08-16T02:21:05.745Z,100282.56
2022-08-16T02:23:40.711Z,100286.97
2022-08-16T02:26:16.964Z,100295.06
2022-08-16T02:28:54.339Z,100299.50
2022-08-16T02:31:22.720Z,100298.59
2022-08-16T02:34:18.470Z,100299.41
2022-08-16T02:36:50.790Z,100300.44
2022-08-16T02:39:23.859Z,100312.63
2022-08-16T02:41:57.319Z,100304.88
2022-08-16T02:44:38.106Z,100304.72
2022-08-16T02:47:10.940Z,100302.72
2022-08-16T02:50:54.984Z,100311.09
2022-08-16T02:52:49.120Z,100315.13
2022-08-16T02:55:40.699Z,100314.66
2022-08-16T02:58:26.476Z,100321.75
2022-08-16T03:01:01.683Z,100321.56
2022-08-16T03:04:41.132Z,100323.72
2022-08-16T03:06:42.373Z,100327.72
2022-08-16T03:09:37.980Z,100324.63
2022-08-16T03:12:11.520Z,100330.03
2022-08-16T03:17:53.905Z,100323.28
2022-08-16T03:20:31.865Z,100328.72
2022-08-16T03:23:04.691Z,100329.53
2022-08-16T03:25:44.083Z,100331.03
2022-08-16T03:28:17.951Z,100336.16
2022-08-16T03:30:51.839Z,100330.69
2022-08-16T03:33:29.822Z,100342.97
2022-08-16T03:36:31.198Z,100343.75
2022-08-16T03:39:15.171Z,100339.13
2022-08-16T03:41:59.635Z,100343.38
2022-08-16T03:44:44.184Z,100341.00
2022-08-16T03:47:19.771Z,100349.97
2022-08-16T03:49:56.509Z,100350.59
2022-08-16T03:52:31.733Z,100337.25
2022-08-16T03:55:05.222Z,100349.91
2022-08-16T03:57:44.336Z,100343.41
2022-08-16T04:00:35.683Z,100348.22
2022-08-16T04:03:18.636Z,100351.84
2022-08-16T04:05:51.300Z,100340.28
2022-08-16T04:08:27.127Z,100342.97
2022-08-16T04:11:04.146Z,100341.09
2022-08-16T04:14:08.907Z,100333.75
2022-08-16T04:16:51.561Z,100339.00
2022-08-16T04:19:36.118Z,100338.88
2022-08-16T04:22:08.878Z,100350.34
2022-08-16T04:24:54.174Z,100344.34
2022-08-16T04:27:31.603Z,100337.66
2022-08-16T04:30:12.623Z,100338.53
2022-08-16T04:33:13.012Z,100341.03
2022-08-16T04:35:49.720Z,100335.91
2022-08-16T04:38:20.814Z,100336.78
2022-08-16T04:40:57.837Z,100346.75
2022-08-16T04:43:31.508Z,100343.34
2022-08-16T04:46:03.358Z,100344.41
2022-08-16T04:48:44.395Z,100349.91
2022-08-16T04:51:15.140Z,100360.53
2022-08-16T04:53:49.799Z,100366.25
2022-08-16T04:56:20.451Z,100363.50
2022-08-16T04:58:57.833Z,100361.66
2022-08-16T05:01:57.949Z,100353.94
2022-08-16T05:04:23.877Z,100354.28
2022-08-16T05:07:00.308Z,100351.59
2022-08-16T05:09:50.958Z,100352.19
2022-08-16T05:12:22.258Z,100361.41
2022-08-16T05:18:03.537Z,100358.97
2022-08-16T05:20:57.009Z,100360.56
2022-08-16T05:23:31.923Z,100358.81
2022-08-16T05:26:02.682Z,100360.38
2022-08-16T05:28:39.003Z,100362.88
2022-08-16T05:31:13.651Z,100375.78
2022-08-16T05:33:43.103Z,100376.66
2022-08-16T05:36:20.883Z,100380.47
2022-08-16T05:38:57.996Z,100387.59
2022-08-16T05:41:28.707Z,100380.16
2022-08-16T05:44:05.163Z,100369.69
2022-08-16T05:46:48.728Z,100379.44
2022-08-16T05:49:23.377Z,100378.81
2022-08-16T05:52:00.281Z,100384.03
2022-08-16T05:54:33.251Z,100377.22
2022-08-16T05:57:07.060Z,100377.75
2022-08-16T05:59:41.274Z,100368.06
2022-08-16T06:02:12.073Z,100375.44
2022-08-16T06:04:45.145Z,100387.59
2022-08-16T06:07:26.428Z,100383.31
2022-08-16T06:10:31.900Z,100396.63
2022-08-16T06:16:18.194Z,100390.19
2022-08-16T06:18:51.860Z,100394.63
2022-08-16T06:21:22.617Z,100391.81
2022-08-16T06:24:01.786Z,100402.00
2022-08-16T06:26:57.762Z,100394.59
2022-08-16T06:29:30.085Z,100398.19
2022-08-16T06:31:58.409Z,100394.09
2022-08-16T06:34:55.009Z,100402.28
2022-08-16T06:37:19.663Z,100410.44
2022-08-16T06:39:50.058Z,100413.25
2022-08-16T06:42:47.952Z,100406.38
2022-08-16T06:45:43.731Z,100402.41
2022-08-16T06:48:32.646Z,100413.69
2022-08-16T06:51:03.635Z,100415.63
2022-08-16T06:53:35.379Z,100414.53
2022-08-16T06:56:14.676Z,100413.47
2022-08-16T06:59:08.971Z,100423.19
2022-08-16T07:01:53.580Z,100419.69
2022-08-16T07:04:31.814Z,100413.31
2022-08-16T07:07:09.886Z,100427.38
2022-08-16T07:09:42.526Z,100437.56
2022-08-16T07:12:15.440Z,100417.47
2022-08-16T07:14:50.867Z,100421.22
2022-08-16T07:17:21.765Z,100417.31
2022-08-16T07:20:29.200Z,100426.13
2022-08-16T07:22:59.048Z,100424.03
2022-08-16T07:25:40.590Z,100424.09
2022-08-16T07:28:20.481Z,100435.31
2022-08-16T07:30:50.180Z,100440.47
2022-08-16T07:33:53.365Z,100437.09
2022-08-16T07:36:31.142Z,100439.03
2022-08-16T07:39:02.684Z,100446.53
2022-08-16T07:41:36.418Z,100452.22
2022-08-16T07:44:16.215Z,100452.75
2022-08-16T07:46:45.464Z,100445.59
2022-08-16T07:49:19.626Z,100449.75
2022-08-16T07:51:47.839Z,100449.50
2022-08-16T07:54:21.215Z,100455.84
2022-08-16T07:57:00.125Z,100452.66
2022-08-16T07:59:42.970Z,100463.31
2022-08-16T08:02:20.428Z,100448.16
2022-08-16T08:04:57.735Z,100455.25
2022-08-16T08:07:29.542Z,100456.56
2022-08-16T08:10:04.655Z,100452.03
2022-08-16T08:12:36.633Z,100457.72
2022-08-16T08:18:30.068Z,100464.44
2022-08-16T08:20:59.283Z,100471.34
2022-08-16T08:23:29.689Z,100468.06
2022-08-16T08:25:58.681Z,100466.81
2022-08-16T08:28:29.473Z,100471.00
2022-08-16T08:31:03.225Z,100467.63
2022-08-16T08:33:47.127Z,100467.34
2022-08-16T08:36:33.033Z,100463.16
2022-08-16T08:39:13.011Z,100467.16
2022-08-16T08:41:42.940Z,100465.66
2022-08-16T08:44:29.228Z,100460.53
2022-08-16T08:47:03.294Z,100455.91
2022-08-16T08:49:46.293Z,100460.28
2022-08-16T08:52:34.459Z,100457.28
2022-08-16T08:55:11.470Z,100457.69
2022-08-16T08:57:43.568Z,100453.84
2022-08-16T09:00:51.328Z,100458.13
2022-08-16T09:03:24.458Z,100462.47
2022-08-16T09:06:01.278Z,100462.66
2022-08-16T09:08:32.425Z,100465.66
2022-08-16T09:11:10.237Z,100472.22
2022-08-16T09:13:54.148Z,100474.22
2022-08-16T09:17:01.065Z,100463.94
2022-08-16T09:19:10.128Z,100471.16
2022-08-16T09:21:37.992Z,100467.94
2022-08-16T09:24:10.036Z,100466.88
2022-08-16T09:26:45.698Z,100471.06
2022-08-16T09:29:24.095Z,100466.75
2022-08-16T09:32:07.925Z,100468.22
2022-08-16T09:34:39.044Z,100472.50
2022-08-16T09:37:17.944Z,100468.00
2022-08-16T09:39:50.534Z,100471.50
2022-08-16T09:42:24.168Z,100472.16
2022-08-16T09:45:10.685Z,100476.91
2022-08-16T09:47:56.412Z,100477.22
2022-08-16T09:50:36.861Z,100476.53
2022-08-16T09:53:15.518Z,100467.75
2022-08-16T09:55:49.599Z,100475.09
2022-08-16T09:58:41.654Z,100480.28
2022-08-16T10:01:11.269Z,100485.94
2022-08-16T10:04:01.159Z,100474.69
2022-08-16T10:06:33.480Z,100484.16
2022-08-16T10:09:08.238Z,100485.66
2022-08-16T10:12:11.301Z,100487.94
2022-08-16T10:18:01.052Z,100476.66
2022-08-16T10:20:35.045Z,100482.19
2022-08-16T10:23:08.003Z,100476.66
2022-08-16T10:27:16.381Z,100475.13
2022-08-16T10:28:31.868Z,100474.72
2022-08-16T10:31:03.520Z,100471.25
2022-08-16T10:33:34.200Z,100472.88
2022-08-16T10:36:04.415Z,100475.84
2022-08-16T10:38:36.600Z,100481.63
2022-08-16T10:41:08.283Z,100480.88
2022-08-16T10:43:38.321Z,100468.53
2022-08-16T10:46:39.860Z,100465.84
2022-08-16T10:49:01.103Z,100457.34
2022-08-16T10:51:34.218Z,100464.38
2022-08-16T10:54:28.299Z,100462.91
2022-08-16T10:56:59.993Z,100458.66
2022-08-16T10:59:38.326Z,100464.75
2022-08-16T11:02:58.197Z,100469.34
2022-08-16T11:05:13.904Z,100473.72
2022-08-16T11:07:52.483Z,100468.66
2022-08-16T11:11:05.516Z,100469.53
2022-08-16T11:22:50.956Z,100470.75
2022-08-16T11:28:08.509Z,100471.13
2022-08-16T11:35:43.431Z,100471.59
2022-08-16T11:42:37.958Z,100465.91
2022-08-16T11:45:08.424Z,100465.19
2022-08-16T11:47:39.603Z,100462.84
2022-08-16T11:54:41.944Z,100453.16
2022-08-16T11:57:15.371Z,100459.16
2022-08-16T11:59:43.340Z,100444.34
2022-08-16T12:10:16.308Z,100444.75
2022-08-16T12:12:44.326Z,100443.44
2022-08-16T15:17:41.049Z,100369.16
2022-08-16T15:20:13.636Z,100369.56
2022-08-16T15:22:48.953Z,100364.44
2022-08-16T15:25:22.785Z,100362.78
2022-08-16T15:28:31.735Z,100362.88
2022-08-16T15:31:06.781Z,100361.28
2022-08-16T15:33:42.634Z,100357.31
2022-08-16T15:36:17.717Z,100357.31
2022-08-16T15:38:56.760Z,100354.88
2022-08-16T15:41:34.399Z,100361.59
2022-08-16T15:44:10.373Z,100362.78
2022-08-16T15:46:55.337Z,100360.06
2022-08-16T15:49:55.613Z,100360.84
2022-08-16T15:52:30.473Z,100355.72
2022-08-16T15:55:24.119Z,100360.91
2022-08-16T15:58:34.914Z,100354.13
2022-08-16T16:00:55.433Z,100357.69
2022-08-16T16:03:29.250Z,100348.56
2022-08-16T16:06:05.391Z,100351.75
2022-08-16T16:08:59.548Z,100347.34
2022-08-16T16:11:31.096Z,100348.97
2022-08-16T16:27:09.195Z,100344.94
2022-08-16T16:29:40.569Z,100354.88
2022-08-16T16:32:10.146Z,100359.25
2022-08-16T16:34:38.846Z,100362.47
2022-08-16T16:37:10.387Z,100355.69
2022-08-16T16:39:42.423Z,100356.09
2022-08-16T16:42:29.720Z,100356.06
2022-08-16T16:45:03.770Z,100355.28
2022-08-16T16:47:48.314Z,100353.69
2022-08-16T16:50:16.854Z,100352.88
2022-08-16T16:52:48.368Z,100352.09
2022-08-16T16:55:19.224Z,100346.13
2022-08-16T16:58:06.442Z,100348.09
2022-08-16T17:00:51.755Z,100345.69
2022-08-16T17:03:27.027Z,100347.25
2022-08-16T17:06:03.185Z,100346.41
2022-08-16T17:08:42.136Z,100349.19
2022-08-16T17:11:12.470Z,100353.16
2022-08-16T17:13:44.008Z,100354.31
2022-08-16T17:19:22.074Z,100352.41
2022-08-16T17:21:51.907Z,100354.41
2022-08-16T17:24:31.271Z,100347.97
2022-08-16T17:27:08.981Z,100350.31
2022-08-16T17:29:45.846Z,100360.72
2022-08-16T17:32:47.912Z,100361.88
2022-08-16T17:35:33.619Z,100363.44
2022-08-16T17:38:06.119Z,100357.47
2022-08-16T17:41:24.158Z,100359.09
2022-08-16T17:47:52.245Z,100367.34
2022-08-16T17:50:22.397Z,100357.44
2022-08-16T17:52:53.435Z,100374.06
2022-08-16T17:58:44.709Z,100368.84
2022-08-16T18:01:12.782Z,100374.00
2022-08-16T18:04:07.603Z,100375.56
2022-08-16T18:15:42.829Z,100377.47
2022-08-16T18:18:11.136Z,100384.28
2022-08-16T18:29:07.617Z,100391.00
2022-08-16T18:31:36.242Z,100390.44
2022-08-16T18:34:09.152Z,100395.16
2022-08-16T20:38:13.775Z,100521.41
2022-08-16T20:40:43.689Z,100527.25
2022-08-16T20:43:15.027Z,100523.00
2022-08-16T20:45:46.784Z,100524.63
2022-08-16T20:48:19.679Z,100530.50
2022-08-16T20:50:50.741Z,100534.06
2022-08-16T20:53:44.567Z,100534.94
2022-08-16T20:56:12.337Z,100534.47
2022-08-16T20:58:40.015Z,100537.47
2022-08-16T21:01:12.479Z,100541.53
2022-08-16T21:03:45.930Z,100548.03
2022-08-16T21:06:13.715Z,100545.19
2022-08-16T21:08:52.509Z,100554.81
2022-08-16T21:11:21.828Z,100551.16
2022-08-16T21:14:00.084Z,100554.81
2022-08-16T21:38:11.361Z,100557.06
2022-08-16T21:41:08.563Z,100563.22
2022-08-16T21:43:36.793Z,100562.44
2022-08-16T21:46:07.726Z,100563.94
2022-08-16T21:48:40.543Z,100569.25
2022-08-16T21:51:12.844Z,100575.91
2022-08-16T21:53:43.428Z,100576.00
2022-08-16T21:56:16.574Z,100577.28
2022-08-16T21:58:52.670Z,100579.72
2022-08-16T22:02:06.889Z,100580.84
2022-08-16T22:05:01.999Z,100578.81
2022-08-16T22:07:35.401Z,100587.03
2022-08-16T22:11:04.148Z,100591.50
2022-08-16T22:12:59.874Z,100592.22
2022-08-16T22:15:35.802Z,100592.69
2022-08-16T22:18:03.771Z,100595.78
2022-08-16T22:20:34.498Z,100589.09
2022-08-16T22:23:06.292Z,100592.38
2022-08-16T22:25:36.944Z,100590.91
2022-08-16T22:28:07.882Z,100597.47
2022-08-16T22:30:38.193Z,100596.38
2022-08-16T22:33:16.908Z,100594.84
2022-08-16T22:35:49.824Z,100608.53
2022-08-16T22:38:54.679Z,100606.47
2022-08-16T22:41:13.006Z,100608.25
2022-08-16T22:43:47.774Z,100615.66
2022-08-16T22:46:19.724Z,100611.81
2022-08-16T22:48:53.142Z,100608.84
2022-08-16T22:51:24.628Z,100606.56
2022-08-16T22:53:55.260Z,100605.53
2022-08-16T22:56:25.983Z,100620.03
2022-08-16T22:58:56.269Z,100614.34
2022-08-16T23:01:25.431Z,100610.03
2022-08-16T23:04:01.044Z,100608.25
2022-08-16T23:06:28.826Z,100605.47
2022-08-16T23:08:57.952Z,100605.75
2022-08-16T23:11:25.851Z,100595.19
2022-08-16T23:13:54.726Z,100598.66
2022-08-16T23:16:24.887Z,100604.00
2022-08-16T23:18:58.819Z,100594.25
2022-08-16T23:21:31.995Z,100600.22
2022-08-16T23:24:02.282Z,100590.59
2022-08-16T23:26:44.720Z,100585.66
2022-08-16T23:29:24.579Z,100579.03
2022-08-16T23:31:59.791Z,100571.81
2022-08-16T23:34:28.401Z,100576.50
2022-08-16T23:36:56.720Z,100579.28
2022-08-16T23:39:26.727Z,100563.25
2022-08-16T23:42:02.250Z,100563.31
2022-08-16T23:44:45.547Z,100561.78
2022-08-16T23:47:30.215Z,100558.44
2022-08-16T23:50:04.247Z,100563.69
2022-08-16T23:52:42.337Z,100569.97
2022-08-16T23:55:22.900Z,100583.34
2022-08-16T23:57:53.762Z,100585.31
